Weather History for New Richmond, WI

Change the Weather History Date:

Sunday, October 7, 2012

  Actual Average (KMSP) Record (KMSP)
Temperature  
Mean Temperature 36 °F 53 °F  
Max Temperature 50 °F 62 °F 85 °F (2003)
Min Temperature 23 °F 43 °F 25 °F (1976)
Degree Days  
Heating Degree Days 28 13  
Month to date heating degree days 81  
Since 1 July heating degree days 254  
Cooling Degree Days 0 0  
Month to date cooling degree days 3  
Year to date cooling degree days 750  
Moisture  
Dew Point 22 °F    
Average Humidity 60    
Maximum Humidity 100    
Minimum Humidity 26    
Precipitation  
Precipitation 0.00 in 0.09 in 0.98 in (1904)
Month to date precipitation 0.67  
Year to date precipitation 25.92  
Snow  
Snow 0.00 in 0.00 in T in (1915)
Month to date snowfall 0.0  
Since 1 July snowfall T  
Since 1 September snowfall T  
Snow Depth -    
Sea Level Pressure  
Sea Level Pressure 30.08 in    
Wind  
Wind Speed 5 mph (SSW)    
Max Wind Speed 20 mph    
Max Gust Speed 24 mph    
Visibility 10 miles    
Events      
T = Trace of Precipitation, MM = Missing Value Source: NWS Daily Summary

Daily Weather History Graph

Daily Weather History Graph

Search for Another Location

Airport:

Trip Planner

Search our weather history database for the weather conditions in past years. The results will help you decide how hot, cold, wet, or windy it might be!

Date:

Astronomy

Oct. 07, 2012 Rise Set
Actual Time 7:16 AM CDT 6:38 PM CDT
Civil Twilight 6:46 AM CDT 7:07 PM CDT
Nautical Twilight 6:12 AM CDT 7:41 PM CDT
Astronomical Twilight 5:38 AM CDT 8:16 PM CDT
Moon 11:40 PM CDT (10/7) 2:05 PM CDT (10/7)
Length of Visible Light 12h 20m
Length of Day
11h 22m
Waning Gibbous, 56% of the Moon is Illuminated
Oct 7
Waning Gibbous
Oct 8
Last Quarter
Oct 15
New
Oct 21
First Quarter
Oct 29
Full

Hourly Weather History & Observations

Time (CDT) Temp. Windchill Dew Point Humidity Pressure Visibility Wind Dir Wind Speed Gust Speed Precip Events Conditions
12:15 AM 33.8 °F 29.6 °F 24.8 °F 70% 30.20 in 10.0 mi WSW 4.6 mph - N/A   Overcast
12:35 AM 33.8 °F 30.8 °F 24.8 °F 70% 30.20 in 10.0 mi SW 3.5 mph - N/A   Scattered Clouds
12:55 AM 32.0 °F - 24.8 °F 75% 30.20 in 10.0 mi Calm Calm - N/A   Scattered Clouds
1:15 AM 32.0 °F - 24.8 °F 75% 30.20 in 10.0 mi Calm Calm - N/A   Clear
1:35 AM 32.0 °F - 23.0 °F 69% 30.20 in 10.0 mi Calm Calm - N/A   Clear
1:55 AM 32.0 °F - 26.6 °F 80% 30.20 in 10.0 mi Calm Calm - N/A   Clear
2:15 AM 30.2 °F - 26.6 °F 86% 30.19 in 10.0 mi Calm Calm - N/A   Clear
2:35 AM 28.4 °F - 23.0 °F 80% 30.19 in 10.0 mi Calm Calm - N/A   Clear
2:55 AM 26.6 °F - 23.0 °F 86% 30.19 in 10.0 mi Calm Calm - N/A   Clear
3:15 AM 30.2 °F 26.7 °F 26.6 °F 86% 30.18 in 10.0 mi SSW 3.5 mph - N/A   Clear
3:35 AM 26.6 °F - 23.0 °F 86% 30.17 in 10.0 mi Calm Calm - N/A   Clear
3:55 AM 24.8 °F - 21.2 °F 86% 30.17 in 10.0 mi Calm Calm - N/A   Clear
4:15 AM 26.6 °F - 24.8 °F 93% 30.17 in 10.0 mi Calm Calm - N/A   Clear
4:35 AM 26.6 °F - 26.6 °F 100% 30.17 in 10.0 mi Calm Calm - N/A   Clear
4:55 AM 26.6 °F 22.6 °F 26.6 °F 100% 30.17 in 10.0 mi SSW 3.5 mph - N/A   Clear
5:15 AM 26.6 °F - 24.8 °F 93% 30.16 in 10.0 mi Calm Calm - N/A   Clear
5:35 AM 26.6 °F 22.6 °F 24.8 °F 93% 30.16 in 10.0 mi SSW 3.5 mph - N/A   Clear
5:55 AM 23.0 °F - 23.0 °F 100% 30.16 in 10.0 mi Calm Calm - N/A   Clear
6:15 AM 23.0 °F - 23.0 °F 100% 30.16 in 10.0 mi Calm Calm - N/A   Clear
6:35 AM 26.6 °F 22.6 °F 26.6 °F 100% 30.16 in 10.0 mi South 3.5 mph - N/A   Clear
6:55 AM 23.0 °F 18.4 °F 23.0 °F 100% 30.16 in 10.0 mi SSW 3.5 mph - N/A   Clear
7:15 AM 23.0 °F 17.0 °F 23.0 °F 100% 30.15 in 10.0 mi SSW 4.6 mph - N/A   Clear
7:35 AM 26.6 °F 21.2 °F 26.6 °F 100% 30.15 in 10.0 mi South 4.6 mph - N/A   Clear
7:55 AM 28.4 °F - 26.6 °F 93% 30.15 in 10.0 mi Calm Calm - N/A   Clear
8:15 AM 28.4 °F 24.6 °F 28.4 °F 100% 30.15 in 10.0 mi SSW 3.5 mph - N/A   Clear
8:35 AM 30.2 °F 26.7 °F 28.4 °F 93% 30.15 in 10.0 mi SSW 3.5 mph - N/A   Clear
8:55 AM 32.0 °F 25.6 °F 28.4 °F 87% 30.15 in 10.0 mi SSW 6.9 mph - N/A   Clear
9:15 AM 33.8 °F 27.7 °F 28.4 °F 81% 30.14 in 10.0 mi SSW 6.9 mph - N/A   Clear
9:35 AM 35.6 °F 28.6 °F 28.4 °F 75% 30.14 in 10.0 mi SW 9.2 mph - N/A   Clear
9:55 AM 37.4 °F 30.8 °F 26.6 °F 65% 30.14 in 10.0 mi SW 9.2 mph - N/A   Clear
10:15 AM 39.2 °F 32.0 °F 26.6 °F 61% 30.14 in 10.0 mi SW 11.5 mph - N/A   Clear
10:35 AM 41.0 °F 33.1 °F 23.0 °F 49% 30.13 in 10.0 mi WSW 15.0 mph 20.7 mph N/A   Clear
10:55 AM 42.8 °F 35.4 °F 23.0 °F 46% 30.13 in 10.0 mi SW 15.0 mph - N/A   Clear
11:15 AM 42.8 °F 35.8 °F 21.2 °F 42% 30.12 in 10.0 mi SW 13.8 mph - N/A   Clear
11:35 AM 44.6 °F 38.1 °F 21.2 °F 39% 30.11 in 10.0 mi WSW 13.8 mph 19.6 mph N/A   Clear
11:55 AM 44.6 °F 38.4 °F 21.2 °F 39% 30.11 in 10.0 mi SW 12.7 mph 18.4 mph N/A   Clear
12:15 PM 46.4 °F 40.4 °F 19.4 °F 34% 30.10 in 10.0 mi WSW 13.8 mph 23.0 mph N/A   Clear
12:35 PM 46.4 °F 41.1 °F 19.4 °F 34% 30.10 in 10.0 mi SW 11.5 mph 20.7 mph N/A   Clear
12:55 PM 46.4 °F 39.8 °F 17.6 °F 32% 30.09 in 10.0 mi SW 16.1 mph 23.0 mph N/A   Clear
1:15 PM 48.2 °F - 17.6 °F 30% 30.08 in 10.0 mi SW 18.4 mph 24.2 mph N/A   Clear
1:35 PM 48.2 °F - 17.6 °F 30% 30.07 in 10.0 mi West 18.4 mph 24.2 mph N/A   Clear
1:55 PM 48.2 °F - 17.6 °F 30% 30.05 in 10.0 mi WSW 19.6 mph 23.0 mph N/A   Clear
2:15 PM 50.0 °F - 17.6 °F 28% 30.04 in 10.0 mi WSW 11.5 mph 18.4 mph N/A   Clear
2:35 PM 50.0 °F - 17.6 °F 28% 30.03 in 10.0 mi WSW 13.8 mph 21.9 mph N/A   Clear
2:55 PM 50.0 °F - 17.6 °F 28% 30.03 in 10.0 mi WSW 15.0 mph 21.9 mph N/A   Clear
3:15 PM 50.0 °F - 15.8 °F 26% 30.02 in 10.0 mi SW 17.3 mph 21.9 mph N/A   Clear
3:35 PM 50.0 °F - 15.8 °F 26% 30.01 in 10.0 mi WSW 17.3 mph - N/A   Clear
4:35 PM 50.0 °F - 17.6 °F 28% 29.99 in 10.0 mi SW 10.4 mph 18.4 mph N/A   Clear
4:55 PM 50.0 °F - 17.6 °F 28% 29.98 in 10.0 mi SW 15.0 mph 20.7 mph N/A   Clear
5:15 PM 48.2 °F - 17.6 °F 30% 29.98 in 10.0 mi WSW 10.4 mph - N/A   Clear
5:35 PM 48.2 °F - 17.6 °F 30% 29.98 in 10.0 mi SW 9.2 mph - N/A   Clear
5:55 PM 46.4 °F 42.4 °F 17.6 °F 32% 29.97 in 10.0 mi SSW 8.1 mph - N/A   Clear
6:15 PM 46.4 °F 42.9 °F 17.6 °F 32% 29.96 in 10.0 mi SSW 6.9 mph - N/A   Clear
6:35 PM 44.6 °F 41.4 °F 17.6 °F 34% 29.96 in 10.0 mi SSW 5.8 mph - N/A   Clear
6:55 PM 44.6 °F 41.4 °F 17.6 °F 34% 29.95 in 10.0 mi South 5.8 mph - N/A   Clear
7:15 PM 42.8 °F 38.6 °F 17.6 °F 36% 29.95 in 10.0 mi South 6.9 mph - N/A   Clear
7:55 PM 41.0 °F 38.0 °F 17.6 °F 39% 29.95 in 10.0 mi SSE 4.6 mph - N/A   Clear
8:15 PM 41.0 °F 37.1 °F 19.4 °F 42% 29.95 in 10.0 mi SSE 5.8 mph - N/A   Scattered Clouds
8:35 PM 39.2 °F 35.0 °F 19.4 °F 45% 29.95 in 10.0 mi SSE 5.8 mph - N/A   Scattered Clouds
8:55 PM 39.2 °F 35.0 °F 19.4 °F 45% 29.94 in 10.0 mi SSE 5.8 mph - N/A   Clear
9:15 PM 39.2 °F 34.2 °F 19.4 °F 45% 29.94 in 10.0 mi SSE 6.9 mph - N/A   Clear
9:35 PM 39.2 °F 33.6 °F 19.4 °F 45% 29.94 in 10.0 mi SSE 8.1 mph - N/A   Clear
9:55 PM 39.2 °F 33.6 °F 19.4 °F 45% 29.93 in 10.0 mi SSE 8.1 mph - N/A   Clear
10:15 PM 37.4 °F 32.1 °F 19.4 °F 48% 29.93 in 10.0 mi SSE 6.9 mph - N/A   Clear
10:35 PM 37.4 °F 31.4 °F 21.2 °F 52% 29.93 in 10.0 mi South 8.1 mph - N/A   Clear
10:55 PM 37.4 °F 30.8 °F 21.2 °F 52% 29.92 in 10.0 mi South 9.2 mph - N/A   Clear
11:15 PM 37.4 °F 30.8 °F 19.4 °F 48% 29.91 in 10.0 mi South 9.2 mph - N/A   Clear
11:35 PM 37.4 °F 30.8 °F 21.2 °F 52% 29.90 in 10.0 mi South 9.2 mph - N/A   Clear
11:55 PM 35.6 °F 28.6 °F 21.2 °F 56% 29.90 in 10.0 mi South 9.2 mph - N/A   Clear